createdAt,value
2019-03-25T00:02:07.273Z,63.70
2019-03-25T00:04:35.492Z,62.90
2019-03-25T00:07:23.216Z,62.90
2019-03-25T00:09:51.765Z,62.70
2019-03-25T00:12:19.997Z,61.90
2019-03-25T00:14:48.233Z,63.10
2019-03-25T00:17:16.796Z,62.20
2019-03-25T00:19:45.102Z,61.80
2019-03-25T00:22:13.342Z,63.30
2019-03-25T00:24:41.573Z,61.70
2019-03-25T00:27:09.806Z,61.60
2019-03-25T00:29:38.040Z,60.60
2019-03-25T00:32:06.270Z,59.90
2019-03-25T00:34:34.836Z,59.70
2019-03-25T00:37:03.133Z,58.80
2019-03-25T00:39:31.425Z,60.20
2019-03-25T00:41:59.648Z,59.20
2019-03-25T00:44:27.890Z,59.50
2019-03-25T00:46:56.118Z,58.60
2019-03-25T00:49:24.358Z,59.10
2019-03-25T00:51:52.589Z,59.20
2019-03-25T00:54:20.845Z,59.00
2019-03-25T00:56:49.137Z,58.00
2019-03-25T00:59:17.364Z,58.50
2019-03-25T01:01:45.599Z,57.60
2019-03-25T01:04:13.836Z,56.90
2019-03-25T01:06:42.078Z,57.30
2019-03-25T01:09:10.593Z,57.60
2019-03-25T01:11:48.674Z,58.40
2019-03-25T01:14:08.789Z,58.30
2019-03-25T01:16:37.028Z,58.60
2019-03-25T01:19:05.257Z,58.00
2019-03-25T01:21:33.500Z,58.30
2019-03-25T01:24:01.720Z,58.40
2019-03-25T01:26:29.955Z,57.40
2019-03-25T01:28:58.453Z,57.30
2019-03-25T01:31:26.692Z,58.10
2019-03-25T01:33:55.029Z,57.60
2019-03-25T01:36:23.272Z,57.70
2019-03-25T01:38:51.503Z,57.80
2019-03-25T01:41:19.756Z,58.10
2019-03-25T01:43:47.968Z,57.00
2019-03-25T01:46:16.203Z,57.20
2019-03-25T01:48:44.487Z,56.20
2019-03-25T01:51:12.752Z,57.00
2019-03-25T01:53:41.049Z,56.20
2019-03-25T01:56:09.288Z,56.40
2019-03-25T01:58:37.517Z,56.10
2019-03-25T02:01:05.773Z,56.20
2019-03-25T02:03:34.005Z,56.20
2019-03-25T02:06:02.248Z,56.00
2019-03-25T02:08:30.476Z,56.30
2019-03-25T02:10:58.716Z,55.70
2019-03-25T02:13:26.939Z,55.90
2019-03-25T02:15:55.189Z,55.80
2019-03-25T02:18:23.416Z,55.30
2019-03-25T02:20:51.727Z,54.90
2019-03-25T02:23:19.952Z,55.70
2019-03-25T02:25:48.496Z,56.00
2019-03-25T02:28:16.797Z,55.80
2019-03-25T02:30:45.038Z,55.50
2019-03-25T02:33:13.429Z,55.40
2019-03-25T02:35:41.672Z,54.70
2019-03-25T02:38:09.901Z,55.50
2019-03-25T02:40:38.133Z,54.50
2019-03-25T02:43:06.358Z,54.60
2019-03-25T02:45:34.599Z,54.60
2019-03-25T02:48:02.817Z,54.60
2019-03-25T02:50:31.052Z,53.90
2019-03-25T02:52:59.272Z,53.70
2019-03-25T02:55:40.819Z,53.80
2019-03-25T02:57:57.734Z,52.70
2019-03-25T03:00:36.025Z,53.70
2019-03-25T03:03:05.489Z,53.20
2019-03-25T03:05:33.906Z,51.20
2019-03-25T03:08:02.155Z,53.00
2019-03-25T03:10:30.451Z,51.80
2019-03-25T03:12:58.670Z,53.10
2019-03-25T03:15:26.897Z,51.80
2019-03-25T03:17:55.652Z,52.40
2019-03-25T03:20:23.901Z,52.50
2019-03-25T03:22:52.116Z,52.00
2019-03-25T03:25:20.375Z,52.90
2019-03-25T03:27:48.650Z,51.60
2019-03-25T03:30:17.206Z,52.40
2019-03-25T03:32:45.445Z,52.70
2019-03-25T03:35:13.669Z,51.60
2019-03-25T03:37:41.905Z,51.80
2019-03-25T03:40:10.127Z,49.80
2019-03-25T03:42:38.381Z,50.60
2019-03-25T03:45:06.628Z,51.40
2019-03-25T03:47:34.905Z,50.90
2019-03-25T03:50:05.172Z,50.70
2019-03-25T03:52:34.320Z,50.70
2019-03-25T03:55:02.541Z,50.90
2019-03-25T03:57:30.770Z,51.70
2019-03-25T03:59:59.288Z,52.00
2019-03-25T04:02:46.961Z,52.40
2019-03-25T04:05:15.217Z,51.40
2019-03-25T04:07:43.480Z,51.20
2019-03-25T04:10:11.753Z,51.50
2019-03-25T04:12:39.989Z,50.90
2019-03-25T04:15:08.216Z,51.20
2019-03-25T04:17:36.444Z,52.00
2019-03-25T04:20:06.507Z,51.00
2019-03-25T04:22:54.168Z,50.00
2019-03-25T04:25:22.394Z,50.40
2019-03-25T04:27:50.624Z,51.40
2019-03-25T04:30:18.845Z,51.00
2019-03-25T04:32:47.075Z,50.90
2019-03-25T04:35:15.296Z,51.80
2019-03-25T04:37:43.525Z,51.20
2019-03-25T04:40:11.753Z,52.20
2019-03-25T04:42:39.984Z,51.10
2019-03-25T04:45:08.200Z,52.20
2019-03-25T04:47:36.434Z,52.10
2019-03-25T04:50:05.788Z,52.00
2019-03-25T04:52:34.016Z,52.60
2019-03-25T04:55:02.246Z,52.50
2019-03-25T04:57:30.811Z,53.20
2019-03-25T04:59:59.028Z,52.90
2019-03-25T05:02:27.261Z,53.10
2019-03-25T05:04:55.484Z,53.50
2019-03-25T05:07:23.747Z,53.70
2019-03-25T05:09:52.012Z,53.70
2019-03-25T05:12:20.788Z,53.80
2019-03-25T05:14:49.258Z,54.40
2019-03-25T05:17:17.487Z,54.10
2019-03-25T05:19:45.716Z,54.60
2019-03-25T05:22:13.936Z,54.60
2019-03-25T05:24:42.464Z,54.40
2019-03-25T05:27:10.759Z,54.60
2019-03-25T05:29:38.976Z,54.80
2019-03-25T05:32:07.208Z,54.20
2019-03-25T05:34:35.432Z,54.50
2019-03-25T05:37:03.668Z,55.10
2019-03-25T05:39:31.880Z,55.10
2019-03-25T05:42:00.112Z,55.10
2019-03-25T05:44:28.337Z,55.00
2019-03-25T05:46:56.572Z,55.30
2019-03-25T05:49:24.789Z,54.90
2019-03-25T05:51:53.080Z,54.60
2019-03-25T05:54:21.313Z,54.90
2019-03-25T05:56:49.533Z,54.70
2019-03-25T05:59:17.760Z,55.20
2019-03-25T06:01:45.977Z,54.20
2019-03-25T06:04:14.208Z,53.70
2019-03-25T06:06:42.424Z,54.00
2019-03-25T06:09:11.032Z,54.60
2019-03-25T06:11:39.252Z,54.60
2019-03-25T06:14:07.496Z,54.50
2019-03-25T06:16:35.711Z,54.40
2019-03-25T06:19:03.944Z,54.40
2019-03-25T06:21:32.164Z,53.40
2019-03-25T06:24:00.395Z,54.10
2019-03-25T06:26:28.617Z,54.40
2019-03-25T06:28:56.856Z,54.20
2019-03-25T06:31:25.076Z,53.70
2019-03-25T06:33:53.313Z,53.60
2019-03-25T06:36:21.528Z,54.30
2019-03-25T06:38:49.756Z,54.70
2019-03-25T06:41:17.977Z,54.30
2019-03-25T06:43:46.494Z,54.80
2019-03-25T06:46:14.712Z,55.20
2019-03-25T06:48:42.945Z,55.50
2019-03-25T06:51:11.171Z,56.30
2019-03-25T06:53:39.700Z,55.60
2019-03-25T06:56:08.180Z,55.20
2019-03-25T06:58:36.666Z,55.80
2019-03-25T07:01:04.884Z,55.30
2019-03-25T07:03:33.423Z,54.90
2019-03-25T07:06:01.901Z,55.10
2019-03-25T07:08:30.198Z,54.80
2019-03-25T07:10:58.448Z,54.50
2019-03-25T07:13:26.838Z,54.70
2019-03-25T07:15:55.064Z,55.70
2019-03-25T07:18:23.364Z,54.90
2019-03-25T07:20:51.724Z,54.40
2019-03-25T07:23:19.936Z,55.10
2019-03-25T07:25:48.528Z,99.90
2019-03-25T07:28:16.761Z,98.80
2019-03-25T07:30:45.284Z,82.60
2019-03-25T07:33:13.504Z,59.20
2019-03-25T07:35:42.040Z,56.40
2019-03-25T07:38:10.267Z,52.80
2019-03-25T07:40:38.802Z,54.60
2019-03-25T07:43:07.023Z,44.90
2019-03-25T07:45:35.284Z,45.50
2019-03-25T07:48:04.223Z,46.40
2019-03-25T07:50:32.857Z,46.70
2019-03-25T07:53:01.120Z,48.00
2019-03-25T07:55:29.512Z,48.00
2019-03-25T07:57:57.741Z,48.10
2019-03-25T08:00:25.983Z,49.20
2019-03-25T08:02:54.204Z,49.80
2019-03-25T08:05:22.433Z,49.00
2019-03-25T08:07:50.664Z,49.00
2019-03-25T08:10:33.033Z,49.10
2019-03-25T08:13:01.416Z,49.00
2019-03-25T08:15:30.232Z,49.00
2019-03-25T08:17:58.461Z,49.30
2019-03-25T08:20:26.692Z,48.20
2019-03-25T08:22:54.920Z,50.00
2019-03-25T08:25:23.144Z,49.40
2019-03-25T08:27:59.813Z,49.70
2019-03-25T08:30:21.334Z,50.20
2019-03-25T08:32:49.565Z,50.10
2019-03-25T08:35:17.784Z,49.20
2019-03-25T08:37:46.356Z,47.80
2019-03-25T08:40:14.576Z,48.10
2019-03-25T08:42:42.812Z,46.90
2019-03-25T08:45:11.036Z,47.90
2019-03-25T08:47:39.272Z,48.40
2019-03-25T08:50:08.630Z,48.60
2019-03-25T08:52:37.145Z,48.70
2019-03-25T08:55:06.300Z,49.60
2019-03-25T08:57:34.545Z,49.70
2019-03-25T09:00:03.302Z,49.50
2019-03-25T09:02:31.536Z,49.30
2019-03-25T09:04:59.757Z,50.20
2019-03-25T09:07:28.232Z,48.80
2019-03-25T09:09:56.461Z,49.30
2019-03-25T09:12:24.697Z,49.00
2019-03-25T09:14:52.915Z,48.90
2019-03-25T09:17:21.153Z,48.50
2019-03-25T09:19:49.431Z,47.90
2019-03-25T09:22:17.668Z,48.90
2019-03-25T09:24:45.886Z,49.90
2019-03-25T09:27:14.108Z,50.00
2019-03-25T09:29:42.333Z,49.80
2019-03-25T09:32:10.566Z,50.50
2019-03-25T09:34:38.788Z,49.00
2019-03-25T09:37:07.016Z,49.80
2019-03-25T09:39:35.337Z,50.30
2019-03-25T09:42:03.732Z,51.40
2019-03-25T09:44:31.953Z,50.70
2019-03-25T09:47:00.181Z,50.10
2019-03-25T09:49:28.396Z,49.90
2019-03-25T09:51:56.625Z,49.60
2019-03-25T09:54:24.846Z,50.00
2019-03-25T09:56:53.356Z,50.40
2019-03-25T09:59:21.568Z,50.60
2019-03-25T10:01:49.796Z,51.10
2019-03-25T10:04:20.027Z,51.10
2019-03-25T10:06:47.964Z,50.20
2019-03-25T10:09:16.185Z,50.20
2019-03-25T10:11:44.415Z,50.60
2019-03-25T10:14:12.633Z,50.90
2019-03-25T10:16:40.864Z,51.90
2019-03-25T10:19:10.218Z,51.90
2019-03-25T10:21:38.789Z,51.40
2019-03-25T10:24:07.077Z,51.50
2019-03-25T10:26:35.340Z,51.90
2019-03-25T10:29:03.570Z,51.80
2019-03-25T10:31:31.780Z,51.60
2019-03-25T10:34:00.264Z,51.30
2019-03-25T10:36:28.482Z,51.90
2019-03-25T10:38:56.713Z,52.30
2019-03-25T10:41:24.941Z,52.00
2019-03-25T10:43:53.170Z,51.80
2019-03-25T10:46:21.385Z,51.60
2019-03-25T10:48:49.618Z,52.80
2019-03-25T10:51:17.848Z,54.00
2019-03-25T10:53:46.082Z,55.40
2019-03-25T10:56:14.292Z,54.30
2019-03-25T10:58:42.525Z,55.50
2019-03-25T11:01:11.101Z,55.30
2019-03-25T11:03:39.331Z,55.40
2019-03-25T11:06:07.544Z,53.70
2019-03-25T11:08:36.033Z,53.30
2019-03-25T11:11:06.296Z,55.30
2019-03-25T11:13:34.212Z,54.50
2019-03-25T11:16:02.705Z,54.40
2019-03-25T11:18:31.184Z,51.90
2019-03-25T11:20:59.403Z,49.70
2019-03-25T11:23:27.650Z,47.50
2019-03-25T11:25:55.872Z,48.90
2019-03-25T11:28:43.853Z,45.80
2019-03-25T11:31:12.068Z,43.30
2019-03-25T11:33:40.304Z,45.20
2019-03-25T11:36:08.524Z,46.50
2019-03-25T11:38:36.760Z,47.20
2019-03-25T11:41:04.975Z,47.20
2019-03-25T11:43:33.216Z,47.30
2019-03-25T11:46:01.428Z,47.60
2019-03-25T11:48:29.665Z,45.50
2019-03-25T11:50:57.889Z,46.00
2019-03-25T11:53:26.116Z,47.30
2019-03-25T11:55:54.585Z,47.00
2019-03-25T11:58:22.824Z,47.10
2019-03-25T12:00:51.044Z,45.00
2019-03-25T12:03:19.272Z,44.20
2019-03-25T12:05:47.492Z,44.40
2019-03-25T12:08:15.728Z,42.60
2019-03-25T12:10:43.959Z,42.70
2019-03-25T12:13:12.188Z,43.50
2019-03-25T12:15:40.412Z,44.30
2019-03-25T12:18:08.644Z,44.10
2019-03-25T12:20:36.864Z,43.70
2019-03-25T12:23:05.100Z,45.40
2019-03-25T12:25:33.315Z,43.10
2019-03-25T12:28:01.548Z,44.00
2019-03-25T12:30:29.769Z,42.90
2019-03-25T12:33:03.979Z,41.70
2019-03-25T12:35:27.944Z,41.50
2019-03-25T12:37:56.515Z,40.50
2019-03-25T12:40:24.734Z,41.80
2019-03-25T12:42:52.964Z,41.80
2019-03-25T12:45:21.235Z,42.50
2019-03-25T12:47:49.824Z,41.60
2019-03-25T12:50:18.044Z,39.70
2019-03-25T12:52:46.298Z,37.60
2019-03-25T12:55:14.580Z,36.90
2019-03-25T12:57:42.807Z,38.60
2019-03-25T13:00:11.037Z,38.60
2019-03-25T13:02:39.256Z,38.70
2019-03-25T13:05:07.490Z,39.50
2019-03-25T13:07:48.069Z,37.30
2019-03-25T13:10:22.288Z,37.60
2019-03-25T13:12:50.517Z,37.80
2019-03-25T13:15:18.748Z,37.90
2019-03-25T13:17:46.964Z,39.30
2019-03-25T13:20:15.198Z,39.10
2019-03-25T13:22:43.424Z,41.00
2019-03-25T13:25:11.663Z,43.30
2019-03-25T13:27:39.871Z,43.70
2019-03-25T13:30:08.108Z,44.80
2019-03-25T13:32:36.325Z,45.30
2019-03-25T13:35:06.186Z,44.60
2019-03-25T13:37:34.408Z,44.10
2019-03-25T13:40:03.289Z,44.10
2019-03-25T13:42:31.516Z,42.80
2019-03-25T13:44:59.776Z,42.40
2019-03-25T13:47:28.073Z,41.70
2019-03-25T13:49:56.304Z,40.40
2019-03-25T13:52:24.523Z,41.90
2019-03-25T13:54:53.056Z,39.90
2019-03-25T13:57:21.272Z,38.80
2019-03-25T13:59:49.503Z,38.30
2019-03-25T14:02:17.729Z,39.90
2019-03-25T14:04:45.956Z,38.70
2019-03-25T14:07:14.522Z,39.80
2019-03-25T14:09:42.751Z,39.10
2019-03-25T14:12:10.972Z,40.00
2019-03-25T14:14:39.204Z,39.30
2019-03-25T14:17:07.425Z,40.10
2019-03-25T14:19:35.920Z,39.80
2019-03-25T14:22:04.309Z,39.50
2019-03-25T14:24:32.540Z,39.70
2019-03-25T14:27:00.760Z,36.90
2019-03-25T14:29:48.428Z,37.30
2019-03-25T14:32:16.647Z,35.80
2019-03-25T14:34:45.287Z,37.60
2019-03-25T14:37:13.632Z,37.10
2019-03-25T14:39:41.864Z,36.90
2019-03-25T14:42:10.091Z,37.60
2019-03-25T14:44:38.322Z,43.50
2019-03-25T14:47:06.540Z,51.90
2019-03-25T14:49:34.776Z,57.80
2019-03-25T14:52:03.000Z,61.80
2019-03-25T14:54:31.233Z,66.40
2019-03-25T14:56:59.452Z,70.10
2019-03-25T14:59:27.684Z,72.70
2019-03-25T15:01:55.910Z,75.00
2019-03-25T15:04:24.137Z,76.60
2019-03-25T15:06:52.355Z,80.30
2019-03-25T15:09:20.581Z,81.50
2019-03-25T15:11:48.797Z,77.10
2019-03-25T15:14:17.028Z,74.30
2019-03-25T15:16:45.248Z,71.30
2019-03-25T15:19:13.484Z,70.30
2019-03-25T15:21:41.710Z,67.90
2019-03-25T15:24:09.922Z,72.90
2019-03-25T15:26:38.149Z,73.80
2019-03-25T15:29:06.369Z,72.50
2019-03-25T15:31:34.596Z,71.40
2019-03-25T15:34:02.816Z,73.90
2019-03-25T15:36:31.157Z,71.90
2019-03-25T15:38:59.376Z,74.10
2019-03-25T15:41:27.605Z,73.40
2019-03-25T15:43:55.826Z,70.70
2019-03-25T15:46:24.052Z,73.20
2019-03-25T15:48:52.270Z,71.20
2019-03-25T15:51:20.497Z,72.10
2019-03-25T15:53:48.712Z,68.40
2019-03-25T15:56:16.941Z,70.40
2019-03-25T15:58:45.156Z,68.30
2019-03-25T16:01:13.388Z,67.90
2019-03-25T16:03:41.857Z,67.40
2019-03-25T16:06:10.082Z,68.40
2019-03-25T16:08:38.299Z,68.30
2019-03-25T16:11:06.532Z,69.40
2019-03-25T16:13:34.753Z,67.70
2019-03-25T16:16:03.237Z,65.10
2019-03-25T16:18:34.063Z,66.10
2019-03-25T16:21:02.281Z,67.40
2019-03-25T16:23:30.830Z,68.50
2019-03-25T16:25:59.056Z,66.80
2019-03-25T16:28:27.272Z,67.50
2019-03-25T16:30:59.088Z,67.50
2019-03-25T16:33:25.442Z,68.60
2019-03-25T16:35:53.668Z,62.70
2019-03-25T16:38:21.896Z,62.90
2019-03-25T16:40:50.127Z,61.20
2019-03-25T16:43:18.340Z,59.30
2019-03-25T16:45:46.575Z,57.50
2019-03-25T16:48:15.188Z,57.60
2019-03-25T16:50:43.416Z,58.90
2019-03-25T16:53:11.633Z,56.60
2019-03-25T16:55:39.864Z,57.50
2019-03-25T16:58:08.080Z,58.40
2019-03-25T17:00:36.308Z,57.90
2019-03-25T17:03:04.526Z,57.50
2019-03-25T17:05:32.744Z,58.40
2019-03-25T17:08:00.973Z,58.70
2019-03-25T17:10:29.189Z,59.50
2019-03-25T17:12:57.453Z,59.10
2019-03-25T17:15:25.722Z,60.20
2019-03-25T17:17:53.973Z,60.20
2019-03-25T17:20:22.185Z,59.40
2019-03-25T17:22:50.667Z,58.30
2019-03-25T17:25:19.113Z,57.70
2019-03-25T17:27:47.346Z,58.20
2019-03-25T17:30:15.944Z,59.60
2019-03-25T17:32:44.175Z,63.10
2019-03-25T17:35:12.693Z,58.90
2019-03-25T17:37:40.916Z,58.80
2019-03-25T17:40:09.154Z,58.30
2019-03-25T17:42:37.440Z,58.70
2019-03-25T17:45:08.094Z,59.10
2019-03-25T17:47:36.323Z,59.40
2019-03-25T17:50:06.772Z,58.40
2019-03-25T17:52:35.181Z,59.00
2019-03-25T17:55:05.339Z,58.50
2019-03-25T17:57:33.571Z,59.30
2019-03-25T18:00:01.798Z,58.80
2019-03-25T18:02:30.024Z,57.70
2019-03-25T18:04:58.315Z,58.30
2019-03-25T18:07:26.840Z,59.30
2019-03-25T18:09:55.132Z,59.80
2019-03-25T18:12:23.698Z,60.30
2019-03-25T18:14:51.912Z,59.80
2019-03-25T18:17:20.140Z,59.10
2019-03-25T18:19:48.355Z,59.40
2019-03-25T18:22:16.583Z,61.40
2019-03-25T18:24:44.911Z,61.20
2019-03-25T18:27:13.464Z,59.50
2019-03-25T18:29:41.695Z,60.00
2019-03-25T18:32:09.932Z,61.60
2019-03-25T18:34:40.127Z,60.90
2019-03-25T18:37:15.627Z,59.50
2019-03-25T18:39:43.856Z,60.00
2019-03-25T18:42:12.072Z,58.70
2019-03-25T18:44:40.306Z,59.90
2019-03-25T18:47:08.520Z,60.00
2019-03-25T18:49:36.768Z,60.70
2019-03-25T18:52:04.982Z,60.90
2019-03-25T18:54:33.212Z,60.00
2019-03-25T18:57:01.458Z,59.90
2019-03-25T18:59:30.077Z,60.30
2019-03-25T19:01:58.296Z,61.50
2019-03-25T19:04:27.390Z,62.10
2019-03-25T19:06:55.754Z,61.20
2019-03-25T19:09:23.983Z,61.20
2019-03-25T19:11:52.199Z,60.50
2019-03-25T19:14:20.424Z,59.90
2019-03-25T19:16:48.645Z,59.80
2019-03-25T19:19:17.235Z,60.50
2019-03-25T19:21:45.524Z,61.30
2019-03-25T19:24:13.784Z,61.50
2019-03-25T19:26:41.984Z,60.00
2019-03-25T19:29:10.215Z,60.10
2019-03-25T19:31:38.463Z,61.00
2019-03-25T19:34:06.726Z,61.60
2019-03-25T19:36:35.267Z,60.90
2019-03-25T19:39:05.185Z,60.90
2019-03-25T19:41:33.436Z,61.30
2019-03-25T19:44:01.709Z,60.80
2019-03-25T19:46:31.388Z,61.60
2019-03-25T19:48:59.813Z,61.30
2019-03-25T19:51:28.037Z,62.30
2019-03-25T19:53:56.316Z,61.50
2019-03-25T19:56:24.573Z,60.70
2019-03-25T19:58:53.102Z,62.00
2019-03-25T20:01:21.321Z,60.80
2019-03-25T20:03:49.572Z,60.60
2019-03-25T20:06:26.065Z,61.10
2019-03-25T20:08:47.825Z,61.20
2019-03-25T20:11:16.166Z,61.20
2019-03-25T20:13:44.867Z,61.40
2019-03-25T20:16:13.134Z,61.80
2019-03-25T20:18:41.392Z,64.10
2019-03-25T20:21:09.648Z,64.40
2019-03-25T20:23:57.524Z,64.60
2019-03-25T20:26:25.797Z,65.70
2019-03-25T20:28:54.069Z,66.30
2019-03-25T20:31:22.421Z,66.60
2019-03-25T20:33:50.636Z,66.60
2019-03-25T20:36:18.882Z,66.90
2019-03-25T20:38:49.354Z,66.70
2019-03-25T20:41:17.056Z,67.30
2019-03-25T20:43:45.339Z,68.10
2019-03-25T20:46:13.584Z,68.20
2019-03-25T20:48:41.809Z,69.10
2019-03-25T20:51:10.114Z,70.40
2019-03-25T20:53:38.510Z,70.20
2019-03-25T20:56:06.756Z,69.30
2019-03-25T20:58:34.968Z,69.10
2019-03-25T21:01:03.234Z,68.20
2019-03-25T21:03:31.538Z,68.90
2019-03-25T21:05:59.794Z,69.50
2019-03-25T21:08:28.012Z,68.90
2019-03-25T21:10:56.254Z,69.50
2019-03-25T21:13:24.456Z,71.00
2019-03-25T21:15:52.732Z,70.30
2019-03-25T21:18:20.988Z,69.70
2019-03-25T21:20:49.226Z,71.20
2019-03-25T21:23:17.477Z,72.40
2019-03-25T21:25:46.085Z,73.00
2019-03-25T21:28:14.392Z,73.20
2019-03-25T21:30:48.225Z,73.70
2019-03-25T21:33:12.677Z,74.20
2019-03-25T21:35:41.184Z,73.60
2019-03-25T21:38:09.435Z,73.60
2019-03-25T21:40:37.711Z,73.10
2019-03-25T21:43:06.004Z,73.20
2019-03-25T21:45:34.228Z,72.40
2019-03-25T21:48:02.787Z,73.90
2019-03-25T21:50:31.000Z,73.10
2019-03-25T21:52:59.273Z,73.00
2019-03-25T21:55:27.593Z,73.00
2019-03-25T21:57:55.981Z,72.40
2019-03-25T22:00:24.267Z,71.90
2019-03-25T22:02:52.508Z,73.10
2019-03-25T22:05:20.738Z,72.60
2019-03-25T22:07:48.955Z,73.40
2019-03-25T22:10:17.180Z,74.10
2019-03-25T22:12:45.399Z,74.20
2019-03-25T22:15:14.100Z,73.70
2019-03-25T22:17:42.317Z,73.90
2019-03-25T22:20:10.877Z,73.20
2019-03-25T22:22:39.092Z,73.60
2019-03-25T22:25:07.856Z,73.80
2019-03-25T22:27:36.244Z,73.50
2019-03-25T22:30:07.568Z,74.30
2019-03-25T22:32:35.796Z,73.40
2019-03-25T22:35:05.959Z,74.00
2019-03-25T22:37:34.432Z,75.90
2019-03-25T22:40:02.653Z,75.60
2019-03-25T22:42:30.880Z,74.70
2019-03-25T22:44:59.096Z,74.30
2019-03-25T22:47:27.327Z,74.60
2019-03-25T22:49:55.540Z,75.30
2019-03-25T22:52:24.091Z,76.10
2019-03-25T22:54:52.308Z,75.40
2019-03-25T22:57:20.539Z,74.60
2019-03-25T22:59:49.030Z,74.20
2019-03-25T23:02:17.251Z,75.80
2019-03-25T23:04:45.476Z,74.10
2019-03-25T23:07:13.961Z,74.70
2019-03-25T23:09:42.172Z,74.80
2019-03-25T23:12:11.262Z,73.70
2019-03-25T23:14:39.476Z,73.50
2019-03-25T23:17:07.704Z,73.50
2019-03-25T23:19:38.592Z,73.60
2019-03-25T23:22:06.208Z,73.80
2019-03-25T23:24:34.423Z,72.80
2019-03-25T23:27:02.657Z,73.80
2019-03-25T23:29:31.492Z,74.00
2019-03-25T23:31:59.992Z,73.40
2019-03-25T23:34:28.200Z,74.00
2019-03-25T23:36:56.428Z,73.70
2019-03-25T23:39:25.283Z,73.30
2019-03-25T23:41:53.752Z,74.00
2019-03-25T23:44:21.970Z,73.70
2019-03-25T23:46:50.196Z,73.00
2019-03-25T23:49:18.413Z,72.20
2019-03-25T23:51:46.662Z,71.70
2019-03-25T23:54:15.036Z,71.80
2019-03-25T23:56:43.272Z,72.10
2019-03-25T23:59:11.489Z,72.10
